sensor_id;sensor_type;location;lat;lon;timestamp;P1;durP1;ratioP1;P2;durP2;ratioP2
26965;SDS011;14522;52.068;4.414;2022-11-18T00:00:47;2.10;;;0.95;;
26965;SDS011;14522;52.068;4.414;2022-11-18T00:03:14;4.65;;;1.10;;
26965;SDS011;14522;52.068;4.414;2022-11-18T00:05:40;1.85;;;0.88;;
26965;SDS011;14522;52.068;4.414;2022-11-18T00:08:07;4.38;;;1.38;;
26965;SDS011;14522;52.068;4.414;2022-11-18T00:10:39;2.28;;;1.00;;
26965;SDS011;14522;52.068;4.414;2022-11-18T00:13:05;3.42;;;1.27;;
26965;SDS011;14522;52.068;4.414;2022-11-18T00:15:58;3.97;;;1.52;;
26965;SDS011;14522;52.068;4.414;2022-11-18T00:18:25;2.55;;;1.10;;
26965;SDS011;14522;52.068;4.414;2022-11-18T00:20:51;3.20;;;0.70;;
26965;SDS011;14522;52.068;4.414;2022-11-18T00:23:18;4.45;;;1.00;;
26965;SDS011;14522;52.068;4.414;2022-11-18T00:25:44;1.17;;;0.73;;
26965;SDS011;14522;52.068;4.414;2022-11-18T00:28:11;2.03;;;1.00;;
26965;SDS011;14522;52.068;4.414;2022-11-18T00:30:37;2.20;;;0.90;;
26965;SDS011;14522;52.068;4.414;2022-11-18T00:33:03;3.80;;;1.20;;
26965;SDS011;14522;52.068;4.414;2022-11-18T00:35:30;2.65;;;0.88;;
26965;SDS011;14522;52.068;4.414;2022-11-18T00:37:56;2.15;;;0.88;;
26965;SDS011;14522;52.068;4.414;2022-11-18T00:40:22;4.07;;;1.02;;
26965;SDS011;14522;52.068;4.414;2022-11-18T00:42:49;5.28;;;1.10;;
26965;SDS011;14522;52.068;4.414;2022-11-18T00:45:19;2.78;;;1.00;;
26965;SDS011;14522;52.068;4.414;2022-11-18T00:47:46;2.42;;;1.05;;
26965;SDS011;14522;52.068;4.414;2022-11-18T00:50:12;3.95;;;1.13;;
26965;SDS011;14522;52.068;4.414;2022-11-18T00:52:38;2.50;;;1.20;;
26965;SDS011;14522;52.068;4.414;2022-11-18T00:55:05;5.68;;;1.30;;
26965;SDS011;14522;52.068;4.414;2022-11-18T00:57:31;1.50;;;0.70;;
26965;SDS011;14522;52.068;4.414;2022-11-18T00:59:58;4.72;;;1.20;;
26965;SDS011;14522;52.068;4.414;2022-11-18T01:02:24;1.73;;;1.23;;
26965;SDS011;14522;52.068;4.414;2022-11-18T01:04:51;1.50;;;0.73;;
26965;SDS011;14522;52.068;4.414;2022-11-18T01:07:17;1.63;;;0.68;;
26965;SDS011;14522;52.068;4.414;2022-11-18T01:09:43;2.28;;;1.00;;
26965;SDS011;14522;52.068;4.414;2022-11-18T01:12:10;2.85;;;0.95;;
26965;SDS011;14522;52.068;4.414;2022-11-18T01:14:57;4.03;;;0.93;;
26965;SDS011;14522;52.068;4.414;2022-11-18T01:17:23;1.92;;;0.90;;
26965;SDS011;14522;52.068;4.414;2022-11-18T01:19:49;3.25;;;0.90;;
26965;SDS011;14522;52.068;4.414;2022-11-18T01:22:16;3.10;;;1.00;;
26965;SDS011;14522;52.068;4.414;2022-11-18T01:24:42;2.33;;;0.90;;
26965;SDS011;14522;52.068;4.414;2022-11-18T01:27:09;2.80;;;0.98;;
26965;SDS011;14522;52.068;4.414;2022-11-18T01:29:35;2.20;;;0.88;;
26965;SDS011;14522;52.068;4.414;2022-11-18T01:32:01;2.20;;;0.90;;
26965;SDS011;14522;52.068;4.414;2022-11-18T01:34:48;2.15;;;1.20;;
26965;SDS011;14522;52.068;4.414;2022-11-18T01:37:14;1.90;;;0.90;;
26965;SDS011;14522;52.068;4.414;2022-11-18T01:39:41;1.65;;;1.33;;
26965;SDS011;14522;52.068;4.414;2022-11-18T01:42:12;4.10;;;1.10;;
26965;SDS011;14522;52.068;4.414;2022-11-18T01:44:59;3.13;;;0.98;;
26965;SDS011;14522;52.068;4.414;2022-11-18T01:47:26;3.08;;;1.25;;
26965;SDS011;14522;52.068;4.414;2022-11-18T01:49:53;2.95;;;1.20;;
26965;SDS011;14522;52.068;4.414;2022-11-18T01:52:20;2.55;;;1.15;;
26965;SDS011;14522;52.068;4.414;2022-11-18T01:54:48;2.67;;;1.30;;
26965;SDS011;14522;52.068;4.414;2022-11-18T01:57:18;3.47;;;1.42;;
26965;SDS011;14522;52.068;4.414;2022-11-18T01:59:48;4.07;;;1.40;;
26965;SDS011;14522;52.068;4.414;2022-11-18T02:02:15;4.07;;;1.40;;
26965;SDS011;14522;52.068;4.414;2022-11-18T02:04:43;3.88;;;1.13;;
26965;SDS011;14522;52.068;4.414;2022-11-18T02:07:12;3.03;;;1.75;;
26965;SDS011;14522;52.068;4.414;2022-11-18T02:09:39;2.83;;;1.25;;
26965;SDS011;14522;52.068;4.414;2022-11-18T02:12:05;4.22;;;1.45;;
26965;SDS011;14522;52.068;4.414;2022-11-18T02:14:34;2.42;;;1.38;;
26965;SDS011;14522;52.068;4.414;2022-11-18T02:17:03;4.03;;;1.27;;
26965;SDS011;14522;52.068;4.414;2022-11-18T02:32:21;3.45;;;1.55;;
26965;SDS011;14522;52.068;4.414;2022-11-18T02:37:47;2.35;;;1.25;;
26965;SDS011;14522;52.068;4.414;2022-11-18T02:42:44;5.10;;;1.75;;
26965;SDS011;14522;52.068;4.414;2022-11-18T02:45:16;2.25;;;1.20;;
26965;SDS011;14522;52.068;4.414;2022-11-18T02:47:43;2.85;;;1.40;;
26965;SDS011;14522;52.068;4.414;2022-11-18T02:50:12;3.20;;;1.35;;
26965;SDS011;14522;52.068;4.414;2022-11-18T02:52:40;1.58;;;1.10;;
26965;SDS011;14522;52.068;4.414;2022-11-18T02:55:08;3.33;;;1.38;;
26965;SDS011;14522;52.068;4.414;2022-11-18T02:57:36;2.75;;;1.20;;
26965;SDS011;14522;52.068;4.414;2022-11-18T03:00:03;4.93;;;1.75;;
26965;SDS011;14522;52.068;4.414;2022-11-18T03:05:36;3.83;;;1.80;;
26965;SDS011;14522;52.068;4.414;2022-11-18T03:08:07;4.15;;;1.60;;
26965;SDS011;14522;52.068;4.414;2022-11-18T03:10:39;5.05;;;1.25;;
26965;SDS011;14522;52.068;4.414;2022-11-18T03:13:14;4.63;;;1.52;;
26965;SDS011;14522;52.068;4.414;2022-11-18T03:15:45;3.50;;;1.35;;
26965;SDS011;14522;52.068;4.414;2022-11-18T03:18:20;2.63;;;1.27;;
26965;SDS011;14522;52.068;4.414;2022-11-18T03:20:52;4.22;;;1.38;;
26965;SDS011;14522;52.068;4.414;2022-11-18T03:23:23;2.65;;;1.35;;
26965;SDS011;14522;52.068;4.414;2022-11-18T03:26:34;2.22;;;0.95;;
26965;SDS011;14522;52.068;4.414;2022-11-18T03:28:51;3.47;;;1.33;;
26965;SDS011;14522;52.068;4.414;2022-11-18T03:31:22;2.47;;;1.13;;
26965;SDS011;14522;52.068;4.414;2022-11-18T03:33:53;2.90;;;1.40;;
26965;SDS011;14522;52.068;4.414;2022-11-18T03:36:22;2.55;;;1.23;;
26965;SDS011;14522;52.068;4.414;2022-11-18T03:38:50;6.10;;;1.30;;
26965;SDS011;14522;52.068;4.414;2022-11-18T03:41:18;6.10;;;1.63;;
26965;SDS011;14522;52.068;4.414;2022-11-18T03:43:47;5.88;;;1.63;;
26965;SDS011;14522;52.068;4.414;2022-11-18T03:46:15;3.40;;;1.40;;
26965;SDS011;14522;52.068;4.414;2022-11-18T03:48:46;3.13;;;1.30;;
26965;SDS011;14522;52.068;4.414;2022-11-18T03:51:16;4.38;;;1.40;;
26965;SDS011;14522;52.068;4.414;2022-11-18T03:53:44;4.68;;;1.67;;
26965;SDS011;14522;52.068;4.414;2022-11-18T03:56:14;3.65;;;1.40;;
26965;SDS011;14522;52.068;4.414;2022-11-18T03:58:48;5.03;;;1.45;;
26965;SDS011;14522;52.068;4.414;2022-11-18T04:01:39;4.25;;;1.20;;
26965;SDS011;14522;52.068;4.414;2022-11-18T04:04:03;3.45;;;1.50;;
26965;SDS011;14522;52.068;4.414;2022-11-18T04:06:31;5.30;;;1.20;;
26965;SDS011;14522;52.068;4.414;2022-11-18T04:09:02;2.70;;;1.20;;
26965;SDS011;14522;52.068;4.414;2022-11-18T04:11:34;6.50;;;1.23;;
26965;SDS011;14522;52.068;4.414;2022-11-18T04:14:20;3.42;;;1.15;;
26965;SDS011;14522;52.068;4.414;2022-11-18T04:16:49;2.45;;;1.00;;
26965;SDS011;14522;52.068;4.414;2022-11-18T04:19:16;4.07;;;1.17;;
26965;SDS011;14522;52.068;4.414;2022-11-18T04:21:45;3.50;;;1.63;;
26965;SDS011;14522;52.068;4.414;2022-11-18T04:24:12;3.47;;;1.13;;
26965;SDS011;14522;52.068;4.414;2022-11-18T04:26:39;5.72;;;1.27;;
26965;SDS011;14522;52.068;4.414;2022-11-18T04:29:05;4.30;;;1.23;;
26965;SDS011;14522;52.068;4.414;2022-11-18T04:31:31;6.07;;;1.50;;
26965;SDS011;14522;52.068;4.414;2022-11-18T04:33:58;3.25;;;1.10;;
26965;SDS011;14522;52.068;4.414;2022-11-18T04:36:24;2.65;;;1.15;;
26965;SDS011;14522;52.068;4.414;2022-11-18T04:38:51;6.78;;;1.52;;
26965;SDS011;14522;52.068;4.414;2022-11-18T04:41:17;5.10;;;1.60;;
26965;SDS011;14522;52.068;4.414;2022-11-18T04:43:44;3.10;;;1.25;;
26965;SDS011;14522;52.068;4.414;2022-11-18T04:46:10;6.18;;;1.58;;
26965;SDS011;14522;52.068;4.414;2022-11-18T04:48:36;8.15;;;2.20;;
26965;SDS011;14522;52.068;4.414;2022-11-18T04:51:03;1.92;;;1.08;;
26965;SDS011;14522;52.068;4.414;2022-11-18T04:53:30;3.30;;;1.15;;
26965;SDS011;14522;52.068;4.414;2022-11-18T04:56:03;2.55;;;1.27;;
26965;SDS011;14522;52.068;4.414;2022-11-18T04:58:29;4.55;;;1.52;;
26965;SDS011;14522;52.068;4.414;2022-11-18T05:00:56;5.95;;;1.40;;
26965;SDS011;14522;52.068;4.414;2022-11-18T05:03:22;4.88;;;1.50;;
26965;SDS011;14522;52.068;4.414;2022-11-18T05:05:48;2.97;;;1.35;;
26965;SDS011;14522;52.068;4.414;2022-11-18T05:08:15;5.68;;;1.45;;
26965;SDS011;14522;52.068;4.414;2022-11-18T05:10:41;6.00;;;1.17;;
26965;SDS011;14522;52.068;4.414;2022-11-18T05:13:08;3.45;;;1.15;;
26965;SDS011;14522;52.068;4.414;2022-11-18T05:15:34;3.22;;;1.10;;
26965;SDS011;14522;52.068;4.414;2022-11-18T05:18:00;5.13;;;1.20;;
26965;SDS011;14522;52.068;4.414;2022-11-18T05:20:27;2.95;;;1.10;;
26965;SDS011;14522;52.068;4.414;2022-11-18T05:22:53;5.20;;;1.20;;
26965;SDS011;14522;52.068;4.414;2022-11-18T05:25:19;4.22;;;1.58;;
26965;SDS011;14522;52.068;4.414;2022-11-18T05:27:46;3.30;;;0.90;;
26965;SDS011;14522;52.068;4.414;2022-11-18T05:30:12;5.60;;;1.48;;
26965;SDS011;14522;52.068;4.414;2022-11-18T05:32:39;3.25;;;1.15;;
26965;SDS011;14522;52.068;4.414;2022-11-18T05:35:05;4.38;;;1.58;;
26965;SDS011;14522;52.068;4.414;2022-11-18T05:37:32;5.63;;;1.45;;
26965;SDS011;14522;52.068;4.414;2022-11-18T05:39:59;6.50;;;1.38;;
26965;SDS011;14522;52.068;4.414;2022-11-18T05:42:25;3.42;;;1.20;;
26965;SDS011;14522;52.068;4.414;2022-11-18T05:45:10;2.95;;;1.10;;
26965;SDS011;14522;52.068;4.414;2022-11-18T05:47:36;4.65;;;1.65;;
26965;SDS011;14522;52.068;4.414;2022-11-18T05:50:23;4.25;;;1.08;;
26965;SDS011;14522;52.068;4.414;2022-11-18T05:52:49;4.97;;;1.10;;
26965;SDS011;14522;52.068;4.414;2022-11-18T05:55:16;4.18;;;1.20;;
26965;SDS011;14522;52.068;4.414;2022-11-18T05:57:43;7.07;;;1.70;;
26965;SDS011;14522;52.068;4.414;2022-11-18T06:00:09;6.70;;;1.30;;
26965;SDS011;14522;52.068;4.414;2022-11-18T06:02:36;4.93;;;1.38;;
26965;SDS011;14522;52.068;4.414;2022-11-18T06:05:03;3.67;;;1.20;;
26965;SDS011;14522;52.068;4.414;2022-11-18T06:07:37;3.75;;;1.58;;
26965;SDS011;14522;52.068;4.414;2022-11-18T06:10:04;4.10;;;1.70;;
26965;SDS011;14522;52.068;4.414;2022-11-18T06:12:33;5.15;;;1.27;;
26965;SDS011;14522;52.068;4.414;2022-11-18T06:15:14;3.83;;;1.33;;
26965;SDS011;14522;52.068;4.414;2022-11-18T06:17:53;4.18;;;1.40;;
26965;SDS011;14522;52.068;4.414;2022-11-18T06:20:20;8.75;;;1.45;;
26965;SDS011;14522;52.068;4.414;2022-11-18T06:22:47;6.45;;;1.70;;
26965;SDS011;14522;52.068;4.414;2022-11-18T06:25:14;3.65;;;1.70;;
26965;SDS011;14522;52.068;4.414;2022-11-18T06:27:40;6.38;;;1.58;;
26965;SDS011;14522;52.068;4.414;2022-11-18T06:30:07;2.85;;;1.15;;
26965;SDS011;14522;52.068;4.414;2022-11-18T06:32:34;5.70;;;1.20;;
26965;SDS011;14522;52.068;4.414;2022-11-18T06:35:00;5.35;;;1.40;;
26965;SDS011;14522;52.068;4.414;2022-11-18T06:37:27;7.00;;;1.27;;
26965;SDS011;14522;52.068;4.414;2022-11-18T06:39:53;10.68;;;2.58;;
26965;SDS011;14522;52.068;4.414;2022-11-18T06:42:19;6.75;;;1.85;;
26965;SDS011;14522;52.068;4.414;2022-11-18T06:45:04;5.63;;;1.42;;
26965;SDS011;14522;52.068;4.414;2022-11-18T06:47:31;7.45;;;1.55;;
26965;SDS011;14522;52.068;4.414;2022-11-18T06:49:57;5.82;;;1.40;;
26965;SDS011;14522;52.068;4.414;2022-11-18T06:52:24;5.82;;;1.35;;
26965;SDS011;14522;52.068;4.414;2022-11-18T06:54:50;5.68;;;1.33;;
26965;SDS011;14522;52.068;4.414;2022-11-18T06:57:17;5.07;;;1.70;;
26965;SDS011;14522;52.068;4.414;2022-11-18T06:59:43;4.25;;;1.20;;
26965;SDS011;14522;52.068;4.414;2022-11-18T07:02:09;10.98;;;1.38;;
26965;SDS011;14522;52.068;4.414;2022-11-18T07:04:36;3.22;;;1.23;;
26965;SDS011;14522;52.068;4.414;2022-11-18T07:07:05;3.67;;;1.30;;
26965;SDS011;14522;52.068;4.414;2022-11-18T07:09:33;4.03;;;1.40;;
26965;SDS011;14522;52.068;4.414;2022-11-18T07:11:59;4.82;;;1.48;;
26965;SDS011;14522;52.068;4.414;2022-11-18T07:14:26;6.43;;;1.50;;
26965;SDS011;14522;52.068;4.414;2022-11-18T07:16:52;4.25;;;1.75;;
26965;SDS011;14522;52.068;4.414;2022-11-18T07:19:19;3.72;;;1.30;;
26965;SDS011;14522;52.068;4.414;2022-11-18T07:21:45;3.30;;;1.10;;
26965;SDS011;14522;52.068;4.414;2022-11-18T07:24:13;4.00;;;1.38;;
26965;SDS011;14522;52.068;4.414;2022-11-18T07:26:39;4.55;;;1.55;;
26965;SDS011;14522;52.068;4.414;2022-11-18T07:29:06;6.30;;;1.50;;
26965;SDS011;14522;52.068;4.414;2022-11-18T07:31:32;5.38;;;1.60;;
26965;SDS011;14522;52.068;4.414;2022-11-18T07:34:02;3.47;;;1.00;;
26965;SDS011;14522;52.068;4.414;2022-11-18T07:36:28;5.15;;;1.60;;
26965;SDS011;14522;52.068;4.414;2022-11-18T07:39:01;4.47;;;1.20;;
26965;SDS011;14522;52.068;4.414;2022-11-18T07:41:28;1.90;;;0.73;;
26965;SDS011;14522;52.068;4.414;2022-11-18T07:43:56;6.20;;;1.15;;
26965;SDS011;14522;52.068;4.414;2022-11-18T07:46:30;3.20;;;1.08;;
26965;SDS011;14522;52.068;4.414;2022-11-18T07:48:58;4.20;;;1.30;;
26965;SDS011;14522;52.068;4.414;2022-11-18T07:51:28;3.58;;;0.90;;
26965;SDS011;14522;52.068;4.414;2022-11-18T07:53:55;4.65;;;1.33;;
26965;SDS011;14522;52.068;4.414;2022-11-18T07:56:22;9.45;;;1.35;;
26965;SDS011;14522;52.068;4.414;2022-11-18T07:58:52;3.35;;;1.15;;
26965;SDS011;14522;52.068;4.414;2022-11-18T08:01:20;4.38;;;1.60;;
26965;SDS011;14522;52.068;4.414;2022-11-18T08:03:47;6.85;;;1.85;;
26965;SDS011;14522;52.068;4.414;2022-11-18T08:06:14;5.45;;;1.98;;
26965;SDS011;14522;52.068;4.414;2022-11-18T08:08:41;5.63;;;1.50;;
26965;SDS011;14522;52.068;4.414;2022-11-18T08:11:13;8.77;;;2.00;;
26965;SDS011;14522;52.068;4.414;2022-11-18T08:13:47;6.28;;;1.67;;
26965;SDS011;14522;52.068;4.414;2022-11-18T08:16:14;5.03;;;1.80;;
26965;SDS011;14522;52.068;4.414;2022-11-18T08:18:42;3.03;;;1.23;;
26965;SDS011;14522;52.068;4.414;2022-11-18T08:21:09;7.95;;;2.25;;
26965;SDS011;14522;52.068;4.414;2022-11-18T08:23:35;7.57;;;1.42;;
26965;SDS011;14522;52.068;4.414;2022-11-18T08:26:11;4.30;;;1.30;;
26965;SDS011;14522;52.068;4.414;2022-11-18T08:28:39;6.43;;;1.95;;
26965;SDS011;14522;52.068;4.414;2022-11-18T08:31:10;6.57;;;1.65;;
26965;SDS011;14522;52.068;4.414;2022-11-18T08:33:37;6.60;;;1.20;;
26965;SDS011;14522;52.068;4.414;2022-11-18T08:36:05;9.55;;;2.33;;
26965;SDS011;14522;52.068;4.414;2022-11-18T08:38:31;4.60;;;1.33;;
26965;SDS011;14522;52.068;4.414;2022-11-18T08:40:58;6.30;;;1.10;;
26965;SDS011;14522;52.068;4.414;2022-11-18T08:43:24;7.07;;;1.67;;
26965;SDS011;14522;52.068;4.414;2022-11-18T08:45:51;4.68;;;1.77;;
26965;SDS011;14522;52.068;4.414;2022-11-18T08:48:17;5.15;;;1.65;;
26965;SDS011;14522;52.068;4.414;2022-11-18T08:50:43;5.50;;;1.77;;
26965;SDS011;14522;52.068;4.414;2022-11-18T08:53:10;5.78;;;2.10;;
26965;SDS011;14522;52.068;4.414;2022-11-18T08:55:36;7.47;;;2.45;;
26965;SDS011;14522;52.068;4.414;2022-11-18T08:58:03;3.22;;;1.73;;
26965;SDS011;14522;52.068;4.414;2022-11-18T09:00:29;6.63;;;1.45;;
26965;SDS011;14522;52.068;4.414;2022-11-18T09:02:55;4.05;;;1.33;;
26965;SDS011;14522;52.068;4.414;2022-11-18T09:05:22;6.15;;;2.05;;
26965;SDS011;14522;52.068;4.414;2022-11-18T09:07:48;5.53;;;1.50;;
26965;SDS011;14522;52.068;4.414;2022-11-18T09:10:15;6.13;;;1.75;;
26965;SDS011;14522;52.068;4.414;2022-11-18T09:12:41;3.40;;;1.42;;
26965;SDS011;14522;52.068;4.414;2022-11-18T09:15:08;6.32;;;1.35;;
26965;SDS011;14522;52.068;4.414;2022-11-18T09:17:40;4.80;;;1.50;;
26965;SDS011;14522;52.068;4.414;2022-11-18T09:20:06;4.22;;;1.45;;
26965;SDS011;14522;52.068;4.414;2022-11-18T09:22:34;5.13;;;1.35;;
26965;SDS011;14522;52.068;4.414;2022-11-18T09:25:02;4.50;;;1.55;;
26965;SDS011;14522;52.068;4.414;2022-11-18T09:27:28;8.68;;;1.38;;
26965;SDS011;14522;52.068;4.414;2022-11-18T09:29:55;5.38;;;1.30;;
26965;SDS011;14522;52.068;4.414;2022-11-18T09:32:21;10.40;;;1.83;;
26965;SDS011;14522;52.068;4.414;2022-11-18T09:34:48;3.97;;;1.20;;
26965;SDS011;14522;52.068;4.414;2022-11-18T09:37:14;5.32;;;1.35;;
26965;SDS011;14522;52.068;4.414;2022-11-18T09:39:41;6.60;;;1.58;;
26965;SDS011;14522;52.068;4.414;2022-11-18T09:47:26;6.30;;;1.38;;
26965;SDS011;14522;52.068;4.414;2022-11-18T09:49:53;4.82;;;1.40;;
26965;SDS011;14522;52.068;4.414;2022-11-18T09:52:23;5.82;;;1.50;;
26965;SDS011;14522;52.068;4.414;2022-11-18T09:54:50;6.90;;;1.70;;
26965;SDS011;14522;52.068;4.414;2022-11-18T09:57:21;7.80;;;1.30;;
26965;SDS011;14522;52.068;4.414;2022-11-18T09:59:48;3.22;;;1.13;;
26965;SDS011;14522;52.068;4.414;2022-11-18T10:02:28;6.25;;;1.88;;
26965;SDS011;14522;52.068;4.414;2022-11-18T10:04:56;4.68;;;1.60;;
26965;SDS011;14522;52.068;4.414;2022-11-18T10:07:34;6.68;;;1.60;;
26965;SDS011;14522;52.068;4.414;2022-11-18T10:10:02;5.07;;;1.45;;
26965;SDS011;14522;52.068;4.414;2022-11-18T10:12:49;4.70;;;1.60;;
26965;SDS011;14522;52.068;4.414;2022-11-18T10:15:22;8.20;;;1.80;;
26965;SDS011;14522;52.068;4.414;2022-11-18T10:25:33;8.82;;;1.65;;
26965;SDS011;14522;52.068;4.414;2022-11-18T10:30:47;5.10;;;1.45;;
26965;SDS011;14522;52.068;4.414;2022-11-18T10:33:17;6.35;;;1.40;;
26965;SDS011;14522;52.068;4.414;2022-11-18T10:35:48;5.97;;;1.55;;
26965;SDS011;14522;52.068;4.414;2022-11-18T10:38:19;6.80;;;1.67;;
26965;SDS011;14522;52.068;4.414;2022-11-18T10:46:14;7.35;;;1.58;;
26965;SDS011;14522;52.068;4.414;2022-11-18T10:48:40;8.07;;;1.63;;
26965;SDS011;14522;52.068;4.414;2022-11-18T10:51:24;8.77;;;1.50;;
26965;SDS011;14522;52.068;4.414;2022-11-18T10:53:51;8.15;;;1.83;;
26965;SDS011;14522;52.068;4.414;2022-11-18T10:56:17;10.57;;;1.88;;
26965;SDS011;14522;52.068;4.414;2022-11-18T10:58:45;6.88;;;1.50;;
26965;SDS011;14522;52.068;4.414;2022-11-18T11:01:23;4.30;;;1.33;;
26965;SDS011;14522;52.068;4.414;2022-11-18T11:03:59;10.50;;;1.67;;
26965;SDS011;14522;52.068;4.414;2022-11-18T11:06:28;7.60;;;1.33;;
26965;SDS011;14522;52.068;4.414;2022-11-18T11:11:56;7.10;;;1.73;;
26965;SDS011;14522;52.068;4.414;2022-11-18T11:16:56;7.82;;;1.50;;
26965;SDS011;14522;52.068;4.414;2022-11-18T11:19:25;5.28;;;1.38;;
26965;SDS011;14522;52.068;4.414;2022-11-18T11:21:54;6.93;;;1.58;;
26965;SDS011;14522;52.068;4.414;2022-11-18T11:24:23;7.75;;;1.92;;
26965;SDS011;14522;52.068;4.414;2022-11-18T11:26:51;7.13;;;1.83;;
26965;SDS011;14522;52.068;4.414;2022-11-18T11:29:52;5.57;;;1.80;;
26965;SDS011;14522;52.068;4.414;2022-11-18T11:39:57;6.28;;;1.40;;
26965;SDS011;14522;52.068;4.414;2022-11-18T11:47:58;2.97;;;1.00;;
26965;SDS011;14522;52.068;4.414;2022-11-18T11:56:16;8.95;;;2.08;;
26965;SDS011;14522;52.068;4.414;2022-11-18T11:59:11;6.93;;;1.60;;
26965;SDS011;14522;52.068;4.414;2022-11-18T12:01:51;5.63;;;2.00;;
26965;SDS011;14522;52.068;4.414;2022-11-18T12:04:27;5.43;;;1.70;;
26965;SDS011;14522;52.068;4.414;2022-11-18T12:06:55;8.65;;;3.20;;
26965;SDS011;14522;52.068;4.414;2022-11-18T12:09:32;7.78;;;2.50;;
26965;SDS011;14522;52.068;4.414;2022-11-18T12:12:11;5.72;;;2.30;;
26965;SDS011;14522;52.068;4.414;2022-11-18T12:15:16;7.65;;;2.90;;
26965;SDS011;14522;52.068;4.414;2022-11-18T12:17:48;6.28;;;2.40;;
26965;SDS011;14522;52.068;4.414;2022-11-18T12:33:46;6.47;;;2.70;;
26965;SDS011;14522;52.068;4.414;2022-11-18T12:38:55;7.95;;;2.65;;
26965;SDS011;14522;52.068;4.414;2022-11-18T12:42:04;10.65;;;2.47;;
26965;SDS011;14522;52.068;4.414;2022-11-18T12:44:30;9.77;;;2.78;;
26965;SDS011;14522;52.068;4.414;2022-11-18T12:46:57;8.50;;;2.78;;
26965;SDS011;14522;52.068;4.414;2022-11-18T12:51:53;5.70;;;1.73;;
26965;SDS011;14522;52.068;4.414;2022-11-18T12:54:27;8.98;;;2.95;;
26965;SDS011;14522;52.068;4.414;2022-11-18T12:56:56;7.22;;;2.85;;
26965;SDS011;14522;52.068;4.414;2022-11-18T12:59:41;8.90;;;3.45;;
26965;SDS011;14522;52.068;4.414;2022-11-18T13:04:37;12.23;;;3.28;;
26965;SDS011;14522;52.068;4.414;2022-11-18T13:07:11;3.75;;;1.92;;
26965;SDS011;14522;52.068;4.414;2022-11-18T13:10:20;7.90;;;2.53;;
26965;SDS011;14522;52.068;4.414;2022-11-18T13:12:48;8.65;;;3.05;;
26965;SDS011;14522;52.068;4.414;2022-11-18T13:15:14;8.85;;;2.55;;
26965;SDS011;14522;52.068;4.414;2022-11-18T13:18:11;7.00;;;2.80;;
26965;SDS011;14522;52.068;4.414;2022-11-18T13:20:38;12.15;;;2.70;;
26965;SDS011;14522;52.068;4.414;2022-11-18T13:26:14;4.57;;;2.30;;
26965;SDS011;14522;52.068;4.414;2022-11-18T13:28:52;6.97;;;2.95;;
26965;SDS011;14522;52.068;4.414;2022-11-18T13:33:51;8.73;;;2.85;;
26965;SDS011;14522;52.068;4.414;2022-11-18T13:36:19;4.93;;;2.20;;
26965;SDS011;14522;52.068;4.414;2022-11-18T13:41:24;7.82;;;2.92;;
26965;SDS011;14522;52.068;4.414;2022-11-18T13:46:38;8.00;;;2.80;;
26965;SDS011;14522;52.068;4.414;2022-11-18T13:49:05;4.93;;;2.83;;
26965;SDS011;14522;52.068;4.414;2022-11-18T13:51:36;6.60;;;3.00;;
26965;SDS011;14522;52.068;4.414;2022-11-18T13:54:03;8.63;;;3.20;;
26965;SDS011;14522;52.068;4.414;2022-11-18T13:56:30;5.78;;;2.97;;
26965;SDS011;14522;52.068;4.414;2022-11-18T13:59:00;8.57;;;3.22;;
26965;SDS011;14522;52.068;4.414;2022-11-18T14:01:52;6.25;;;2.50;;
26965;SDS011;14522;52.068;4.414;2022-11-18T14:04:22;9.38;;;3.00;;
26965;SDS011;14522;52.068;4.414;2022-11-18T14:06:50;9.05;;;2.75;;
26965;SDS011;14522;52.068;4.414;2022-11-18T14:09:23;7.13;;;3.28;;
26965;SDS011;14522;52.068;4.414;2022-11-18T14:12:03;7.00;;;2.88;;
26965;SDS011;14522;52.068;4.414;2022-11-18T14:14:33;11.40;;;2.67;;
26965;SDS011;14522;52.068;4.414;2022-11-18T14:19:45;7.25;;;3.33;;
26965;SDS011;14522;52.068;4.414;2022-11-18T14:22:22;5.63;;;2.75;;
26965;SDS011;14522;52.068;4.414;2022-11-18T14:24:53;6.40;;;2.42;;
26965;SDS011;14522;52.068;4.414;2022-11-18T14:27:39;7.70;;;3.25;;
26965;SDS011;14522;52.068;4.414;2022-11-18T14:35:40;8.48;;;3.13;;
26965;SDS011;14522;52.068;4.414;2022-11-18T14:38:10;6.20;;;2.47;;
26965;SDS011;14522;52.068;4.414;2022-11-18T14:40:58;5.95;;;3.53;;
26965;SDS011;14522;52.068;4.414;2022-11-18T14:43:25;6.28;;;3.30;;
26965;SDS011;14522;52.068;4.414;2022-11-18T14:45:53;5.57;;;2.88;;
26965;SDS011;14522;52.068;4.414;2022-11-18T14:48:21;5.28;;;2.70;;
26965;SDS011;14522;52.068;4.414;2022-11-18T14:50:53;4.82;;;2.92;;
26965;SDS011;14522;52.068;4.414;2022-11-18T14:53:20;7.93;;;2.83;;
26965;SDS011;14522;52.068;4.414;2022-11-18T14:55:47;2.97;;;2.40;;
26965;SDS011;14522;52.068;4.414;2022-11-18T14:58:14;5.15;;;2.65;;
26965;SDS011;14522;52.068;4.414;2022-11-18T15:00:41;5.38;;;2.88;;
26965;SDS011;14522;52.068;4.414;2022-11-18T15:03:08;7.13;;;3.08;;
26965;SDS011;14522;52.068;4.414;2022-11-18T15:05:35;7.05;;;2.97;;
26965;SDS011;14522;52.068;4.414;2022-11-18T15:08:01;4.05;;;2.50;;
26965;SDS011;14522;52.068;4.414;2022-11-18T15:10:28;6.00;;;2.63;;
26965;SDS011;14522;52.068;4.414;2022-11-18T15:12:54;2.85;;;2.17;;
26965;SDS011;14522;52.068;4.414;2022-11-18T15:15:21;5.95;;;3.05;;
26965;SDS011;14522;52.068;4.414;2022-11-18T15:17:47;5.30;;;2.40;;
26965;SDS011;14522;52.068;4.414;2022-11-18T15:20:20;5.57;;;2.50;;
26965;SDS011;14522;52.068;4.414;2022-11-18T15:22:46;5.15;;;2.30;;
26965;SDS011;14522;52.068;4.414;2022-11-18T15:25:12;5.05;;;2.10;;
26965;SDS011;14522;52.068;4.414;2022-11-18T15:27:39;4.85;;;2.38;;
26965;SDS011;14522;52.068;4.414;2022-11-18T15:30:05;6.18;;;2.42;;
26965;SDS011;14522;52.068;4.414;2022-11-18T15:32:32;4.85;;;2.50;;
26965;SDS011;14522;52.068;4.414;2022-11-18T15:34:58;3.55;;;2.67;;
26965;SDS011;14522;52.068;4.414;2022-11-18T15:37:25;4.40;;;2.58;;
26965;SDS011;14522;52.068;4.414;2022-11-18T15:39:51;3.88;;;2.40;;
26965;SDS011;14522;52.068;4.414;2022-11-18T15:42:18;8.45;;;2.55;;
26965;SDS011;14522;52.068;4.414;2022-11-18T15:44:48;7.95;;;2.50;;
26965;SDS011;14522;52.068;4.414;2022-11-18T15:47:15;4.00;;;2.42;;
26965;SDS011;14522;52.068;4.414;2022-11-18T15:49:42;5.20;;;2.38;;
26965;SDS011;14522;52.068;4.414;2022-11-18T15:52:10;5.80;;;2.50;;
26965;SDS011;14522;52.068;4.414;2022-11-18T15:54:37;4.72;;;2.45;;
26965;SDS011;14522;52.068;4.414;2022-11-18T15:57:04;4.45;;;2.47;;
26965;SDS011;14522;52.068;4.414;2022-11-18T15:59:30;9.18;;;2.90;;
26965;SDS011;14522;52.068;4.414;2022-11-18T16:01:57;3.88;;;2.40;;
26965;SDS011;14522;52.068;4.414;2022-11-18T16:04:23;4.07;;;2.53;;
26965;SDS011;14522;52.068;4.414;2022-11-18T16:06:52;6.07;;;2.88;;
26965;SDS011;14522;52.068;4.414;2022-11-18T16:09:19;6.38;;;2.45;;
26965;SDS011;14522;52.068;4.414;2022-11-18T16:11:45;4.68;;;2.28;;
26965;SDS011;14522;52.068;4.414;2022-11-18T16:14:30;5.72;;;2.85;;
26965;SDS011;14522;52.068;4.414;2022-11-18T16:16:57;4.38;;;2.30;;
26965;SDS011;14522;52.068;4.414;2022-11-18T16:19:24;3.85;;;2.50;;
26965;SDS011;14522;52.068;4.414;2022-11-18T16:21:52;7.18;;;2.83;;
26965;SDS011;14522;52.068;4.414;2022-11-18T16:24:20;4.80;;;2.60;;
26965;SDS011;14522;52.068;4.414;2022-11-18T16:26:47;6.43;;;2.42;;
26965;SDS011;14522;52.068;4.414;2022-11-18T16:29:16;6.35;;;2.63;;
26965;SDS011;14522;52.068;4.414;2022-11-18T16:31:44;7.75;;;2.65;;
26965;SDS011;14522;52.068;4.414;2022-11-18T16:34:25;4.68;;;2.33;;
26965;SDS011;14522;52.068;4.414;2022-11-18T16:36:53;6.53;;;2.83;;
26965;SDS011;14522;52.068;4.414;2022-11-18T16:39:20;5.63;;;2.60;;
26965;SDS011;14522;52.068;4.414;2022-11-18T16:41:52;5.47;;;2.75;;
26965;SDS011;14522;52.068;4.414;2022-11-18T16:44:18;5.55;;;2.65;;
26965;SDS011;14522;52.068;4.414;2022-11-18T16:46:46;5.63;;;2.67;;
26965;SDS011;14522;52.068;4.414;2022-11-18T16:49:13;5.13;;;2.60;;